Time;durP1;ratioP1;P1;durP2;ratioP2;P2;SDS_P1;SDS_P2;PMS_P1;PMS_P2;Temp;Humidity;BMP_temperature;BMP_pressure;BME280_temperature;BME280_humidity;BME280_pressure;Samples;Min_cycle;Max_cycle;Signal;HPM_P1;HPM_P2
2022/07/03 00:01:43;;;;;;;2.35;0.90;;;16.70;99.90;;;;;;5078574;28;20071;-67
2022/07/03 00:04:09;;;;;;;3.67;0.70;;;16.80;99.90;;;;;;5063478;28;20031;-67
2022/07/03 00:06:35;;;;;;;2.45;0.77;;;16.70;99.90;;;;;;5082834;28;20044;-66
2022/07/03 00:09:03;;;;;;;2.40;0.70;;;16.60;99.90;;;;;;5062795;28;20040;-66
2022/07/03 00:11:29;;;;;;;1.00;0.70;;;16.50;99.90;;;;;;5046084;28;20055;-66
2022/07/03 00:13:55;;;;;;;2.13;0.80;;;16.50;99.90;;;;;;5061032;28;20048;-66
2022/07/03 00:16:21;;;;;;;2.13;1.10;;;16.40;99.90;;;;;;5066054;28;20465;-66
2022/07/03 00:18:46;;;;;;;2.38;0.70;;;16.40;99.90;;;;;;5064086;28;20489;-66
2022/07/03 00:21:19;;;;;;;2.92;1.08;;;16.30;99.90;;;;;;5064875;28;20036;-66
2022/07/03 00:23:51;;;;;;;3.42;1.30;;;16.30;99.90;;;;;;5080268;28;20143;-67
2022/07/03 00:26:20;;;;;;;2.15;1.00;;;16.30;99.90;;;;;;5080517;28;20044;-67
2022/07/03 00:28:46;;;;;;;2.35;0.90;;;16.20;99.90;;;;;;5060725;28;20058;-66
2022/07/03 00:31:12;;;;;;;2.28;1.20;;;16.20;99.90;;;;;;5078470;28;20036;-67
2022/07/03 00:33:38;;;;;;;1.98;1.15;;;16.30;99.90;;;;;;5070192;28;20067;-66
2022/07/03 00:36:05;;;;;;;2.60;1.30;;;16.20;99.90;;;;;;5061479;28;20183;-67
2022/07/03 00:38:31;;;;;;;4.18;1.20;;;16.20;99.90;;;;;;5079258;28;20044;-66
2022/07/03 00:40:56;;;;;;;3.15;1.33;;;16.10;99.90;;;;;;5074853;28;20443;-66
2022/07/03 00:43:25;;;;;;;4.20;1.30;;;16.30;99.90;;;;;;5078235;28;20500;-66
2022/07/03 00:45:52;;;;;;;2.22;1.20;;;16.10;99.90;;;;;;5069316;28;20104;-66
2022/07/03 00:48:20;;;;;;;1.77;1.00;;;16.20;99.90;;;;;;5061894;28;20048;-67
2022/07/03 00:50:51;;;;;;;2.63;1.13;;;16.00;99.90;;;;;;5083558;28;20036;-66
2022/07/03 00:53:28;;;;;;;2.08;1.23;;;15.90;99.90;;;;;;5080980;28;20471;-66
2022/07/03 00:55:56;;;;;;;3.05;0.88;;;15.80;99.90;;;;;;5063786;28;20048;-66
2022/07/03 00:58:22;;;;;;;2.85;1.20;;;15.70;99.90;;;;;;5078387;28;20044;-66
2022/07/03 01:00:51;;;;;;;3.35;1.00;;;15.60;99.90;;;;;;5063319;28;20056;-66
2022/07/03 01:03:20;;;;;;;1.27;0.73;;;15.50;99.90;;;;;;5063059;28;20040;-66
2022/07/03 01:05:51;;;;;;;3.40;1.40;;;15.50;99.90;;;;;;5082100;28;20387;-66
2022/07/03 01:08:47;;;;;;;1.35;1.00;;;15.50;99.90;;;;;;5062295;28;20043;-66
2022/07/03 01:11:33;;;;;;;2.42;0.98;;;15.50;99.90;;;;;;5081199;28;20040;-66
2022/07/03 01:14:29;;;;;;;4.75;1.08;;;15.40;99.90;;;;;;5062677;28;20040;-66
2022/07/03 01:17:04;;;;;;;2.10;1.27;;;15.40;99.90;;;;;;5048213;28;20044;-67
2022/07/03 01:19:43;;;;;;;2.90;1.23;;;15.40;99.90;;;;;;5064734;28;20092;-66
2022/07/03 01:22:25;;;;;;;1.02;0.85;;;15.40;99.90;;;;;;5077413;28;20105;-66
2022/07/03 01:25:00;;;;;;;2.92;1.02;;;15.30;99.90;;;;;;5081674;28;21644;-66
2022/07/03 01:27:41;;;;;;;2.03;0.93;;;15.20;99.90;;;;;;5065808;28;20067;-66
2022/07/03 01:30:10;;;;;;;5.93;1.30;;;15.10;99.90;;;;;;5080402;28;20569;-66
2022/07/03 01:32:44;;;;;;;4.50;1.30;;;15.10;99.90;;;;;;5082866;28;20047;-66
2022/07/03 01:35:21;;;;;;;2.70;1.30;;;15.00;99.90;;;;;;5067495;28;20051;-66
2022/07/03 01:37:50;;;;;;;1.58;1.25;;;15.00;99.90;;;;;;5084626;28;20293;-66
2022/07/03 01:40:17;;;;;;;1.95;1.20;;;15.00;99.90;;;;;;5061581;28;20075;-66
2022/07/03 01:42:45;;;;;;;3.58;1.40;;;15.00;99.90;;;;;;5076789;28;20524;-66
2022/07/03 01:45:13;;;;;;;2.22;1.58;;;15.00;99.90;;;;;;5064670;28;20055;-66
2022/07/03 01:47:46;;;;;;;3.42;1.65;;;15.00;99.90;;;;;;5052503;28;20040;-66
2022/07/03 01:50:13;;;;;;;2.83;1.30;;;15.00;99.90;;;;;;5084843;28;20032;-66
2022/07/03 01:52:41;;;;;;;2.00;1.40;;;15.00;99.90;;;;;;5080243;28;20051;-66
2022/07/03 01:55:09;;;;;;;2.78;1.30;;;15.00;99.90;;;;;;5062404;28;20040;-67
2022/07/03 01:57:43;;;;;;;1.65;1.00;;;15.00;99.90;;;;;;5071954;28;20042;-67
2022/07/03 02:00:15;;;;;;;4.53;0.82;;;15.00;99.90;;;;;;5068758;28;20048;-66
2022/07/03 02:03:00;;;;;;;3.85;1.00;;;14.90;99.90;;;;;;5048498;28;20040;-66
2022/07/03 02:05:32;;;;;;;2.40;1.20;;;14.80;99.90;;;;;;5066869;28;20050;-66
2022/07/03 02:08:22;;;;;;;2.10;1.10;;;14.80;99.90;;;;;;5070138;28;20114;-66
2022/07/03 02:11:12;;;;;;;4.50;1.00;;;14.80;99.90;;;;;;5086084;28;20032;-66
2022/07/03 02:13:48;;;;;;;3.28;1.45;;;14.70;99.90;;;;;;5063459;28;20052;-66
2022/07/03 02:16:21;;;;;;;1.75;1.08;;;14.60;99.90;;;;;;5070120;28;20142;-66
2022/07/03 02:19:02;;;;;;;4.00;1.40;;;14.50;99.90;;;;;;5066523;28;20068;-66
2022/07/03 02:21:29;;;;;;;2.63;1.63;;;14.60;99.90;;;;;;5085568;28;20044;-66
2022/07/03 02:24:06;;;;;;;4.18;1.75;;;14.60;99.90;;;;;;5085241;28;20079;-66
2022/07/03 02:26:38;;;;;;;1.23;1.13;;;14.60;99.90;;;;;;5087102;28;20047;-66
2022/07/03 02:29:06;;;;;;;2.78;1.70;;;14.60;99.90;;;;;;5071537;28;20044;-66
2022/07/03 02:31:44;;;;;;;2.88;1.55;;;14.60;99.90;;;;;;5086393;28;20064;-66
2022/07/03 02:34:17;;;;;;;2.75;1.00;;;14.60;99.90;;;;;;5068770;28;20047;-66
2022/07/03 02:36:48;;;;;;;2.55;1.33;;;14.60;99.90;;;;;;5069425;28;20048;-66
2022/07/03 02:39:23;;;;;;;5.63;1.98;;;14.50;99.90;;;;;;5086760;28;20044;-66
2022/07/03 02:42:10;;;;;;;4.38;2.60;;;14.50;99.90;;;;;;5086968;28;20039;-66
2022/07/03 02:44:46;;;;;;;4.00;2.60;;;14.60;99.90;;;;;;5085656;28;21918;-66
2022/07/03 02:47:12;;;;;;;3.80;2.70;;;14.60;99.90;;;;;;5083812;28;20127;-66
2022/07/03 02:49:56;;;;;;;4.80;2.53;;;14.70;99.90;;;;;;5085344;28;20123;-66
2022/07/03 02:52:36;;;;;;;3.58;3.00;;;14.70;99.90;;;;;;5080209;28;20040;-66
2022/07/03 02:55:10;;;;;;;3.08;2.58;;;14.80;99.90;;;;;;5069643;28;20062;-66
2022/07/03 02:57:41;;;;;;;7.00;3.28;;;14.70;99.90;;;;;;5082619;28;20130;-66
2022/07/03 03:00:09;;;;;;;4.63;2.60;;;14.70;99.90;;;;;;5069443;28;20047;-66
2022/07/03 03:02:49;;;;;;;6.63;3.08;;;14.80;99.90;;;;;;5087863;28;20039;-66
2022/07/03 03:05:30;;;;;;;4.88;2.67;;;14.80;99.90;;;;;;5089143;28;20043;-66
2022/07/03 03:08:19;;;;;;;4.30;2.88;;;14.80;99.90;;;;;;5053765;28;22091;-66
2022/07/03 03:10:46;;;;;;;7.15;2.60;;;14.80;99.90;;;;;;5078691;28;20040;-66
2022/07/03 03:13:16;;;;;;;4.97;2.25;;;14.80;99.90;;;;;;5085402;28;20044;-66
2022/07/03 03:16:07;;;;;;;3.03;2.10;;;14.80;99.90;;;;;;5087560;28;20046;-66
2022/07/03 03:18:37;;;;;;;2.42;2.22;;;14.70;99.90;;;;;;5069498;28;20058;-66
2022/07/03 03:21:03;;;;;;;8.60;2.20;;;14.60;99.90;;;;;;5085899;28;20554;-66
2022/07/03 03:23:48;;;;;;;4.80;2.75;;;14.50;99.90;;;;;;5085748;28;20047;-66
2022/07/03 03:26:21;;;;;;;3.47;2.47;;;14.40;99.90;;;;;;5068632;28;20032;-66
2022/07/03 03:28:48;;;;;;;3.25;2.00;;;14.40;99.90;;;;;;5069487;28;20040;-66
2022/07/03 03:31:14;;;;;;;2.40;1.80;;;14.30;99.90;;;;;;5068865;28;20043;-66
2022/07/03 03:33:42;;;;;;;7.15;2.30;;;14.20;99.90;;;;;;5080566;28;20040;-66
2022/07/03 03:36:09;;;;;;;4.75;2.35;;;14.10;99.90;;;;;;5078384;28;20033;-66
2022/07/03 03:38:35;;;;;;;3.15;2.42;;;14.20;99.90;;;;;;5067454;28;20059;-66
2022/07/03 03:41:02;;;;;;;4.07;2.60;;;14.20;99.90;;;;;;5082511;28;20072;-66
2022/07/03 03:43:29;;;;;;;2.50;2.20;;;14.20;99.90;;;;;;5067317;28;20043;-66
2022/07/03 03:45:54;;;;;;;4.85;3.15;;;14.30;99.90;;;;;;5086121;28;20044;-66
2022/07/03 03:48:20;;;;;;;6.03;2.83;;;14.40;99.90;;;;;;5070322;28;20050;-66
2022/07/03 03:50:46;;;;;;;2.42;2.22;;;14.50;99.90;;;;;;5084633;28;20032;-66
2022/07/03 03:53:12;;;;;;;2.40;2.20;;;14.60;99.90;;;;;;5072605;28;20039;-66
2022/07/03 03:55:51;;;;;;;3.58;2.95;;;14.60;99.90;;;;;;5067876;28;20119;-66
2022/07/03 03:58:17;;;;;;;3.28;2.65;;;14.60;99.90;;;;;;5084615;28;20937;-66
2022/07/03 04:00:42;;;;;;;2.28;2.05;;;14.70;99.90;;;;;;5082701;28;20115;-66
2022/07/03 04:03:08;;;;;;;7.82;2.47;;;14.70;99.90;;;;;;5084836;28;20082;-66
2022/07/03 04:05:33;;;;;;;7.03;2.40;;;14.60;99.90;;;;;;5070127;28;20051;-66
2022/07/03 04:07:59;;;;;;;3.78;2.30;;;14.70;99.90;;;;;;5068588;28;20082;-66
2022/07/03 04:10:24;;;;;;;4.25;2.22;;;14.60;99.90;;;;;;5083350;28;20024;-67
2022/07/03 04:12:50;;;;;;;4.28;2.30;;;14.60;99.90;;;;;;5081762;28;20032;-66
2022/07/03 04:15:15;;;;;;;5.15;2.33;;;14.60;99.90;;;;;;5071456;28;20489;-66
2022/07/03 04:17:41;;;;;;;4.20;2.75;;;14.70;99.90;;;;;;5083597;28;20490;-66
2022/07/03 04:20:07;;;;;;;3.53;2.58;;;14.70;99.90;;;;;;5064882;28;20059;-66
2022/07/03 04:22:33;;;;;;;3.83;2.60;;;14.80;99.90;;;;;;5085937;28;20115;-66
2022/07/03 04:24:58;;;;;;;7.30;2.97;;;14.90;99.90;;;;;;5067986;28;20044;-66
2022/07/03 04:27:24;;;;;;;8.27;3.17;;;14.90;99.90;;;;;;5063433;28;20044;-66
2022/07/03 04:29:50;;;;;;;6.28;2.58;;;15.10;99.90;;;;;;5082921;28;20124;-66
2022/07/03 04:32:15;;;;;;;3.63;2.70;;;15.10;99.90;;;;;;5069983;28;20040;-66
2022/07/03 04:34:41;;;;;;;6.32;3.67;;;15.20;99.90;;;;;;5068457;28;20044;-66
2022/07/03 04:37:06;;;;;;;3.50;2.95;;;15.20;99.90;;;;;;5067915;28;21802;-66
2022/07/03 04:39:32;;;;;;;4.68;2.97;;;15.20;99.90;;;;;;5066938;28;20426;-66
2022/07/03 04:41:57;;;;;;;4.72;2.63;;;15.30;99.90;;;;;;5082534;28;20036;-66
2022/07/03 04:44:23;;;;;;;3.55;2.72;;;15.40;99.90;;;;;;5053182;28;20154;-66
2022/07/03 04:46:49;;;;;;;3.00;2.60;;;15.50;99.90;;;;;;5067705;28;20048;-66
2022/07/03 04:49:14;;;;;;;2.50;2.25;;;15.80;99.90;;;;;;5081729;28;20036;-66
2022/07/03 04:51:40;;;;;;;2.60;2.40;;;16.60;99.90;;;;;;5085384;28;20927;-66
2022/07/03 04:54:05;;;;;;;2.50;2.20;;;17.10;99.90;;;;;;5082212;28;20036;-66
2022/07/03 04:56:31;;;;;;;2.47;2.03;;;17.50;99.90;;;;;;5084345;28;20396;-66
2022/07/03 04:58:57;;;;;;;2.83;2.40;;;17.60;99.90;;;;;;5084983;28;20038;-66
2022/07/03 05:01:23;;;;;;;3.75;2.22;;;18.40;99.90;;;;;;5084613;28;20402;-66
2022/07/03 05:03:48;;;;;;;3.25;1.52;;;19.20;99.90;;;;;;5083129;28;20089;-66
2022/07/03 05:06:14;;;;;;;3.45;1.70;;;20.20;99.90;;;;;;5081786;28;20452;-66
2022/07/03 05:08:39;;;;;;;3.38;1.63;;;21.10;99.90;;;;;;5083828;28;20512;-66
2022/07/03 05:11:05;;;;;;;2.83;1.80;;;22.30;99.90;;;;;;5084478;28;20047;-66
2022/07/03 05:13:30;;;;;;;2.67;1.92;;;23.70;99.90;;;;;;5064708;28;20044;-66
2022/07/03 05:15:56;;;;;;;3.95;2.30;;;24.40;99.90;;;;;;5082087;28;20038;-66
2022/07/03 05:18:21;;;;;;;1.92;1.20;;;24.20;99.90;;;;;;5067230;28;20035;-66
2022/07/03 05:20:47;;;;;;;5.50;2.03;;;24.80;99.90;;;;;;5081752;28;20044;-66
2022/07/03 05:23:13;;;;;;;3.25;1.92;;;25.80;99.90;;;;;;5083320;28;20704;-66
2022/07/03 05:25:39;;;;;;;3.78;2.08;;;26.80;99.90;;;;;;5082108;28;20044;-66
2022/07/03 05:28:04;;;;;;;4.43;1.80;;;27.70;99.90;;;;;;5079208;28;20036;-66
2022/07/03 05:30:30;;;;;;;2.58;1.60;;;27.90;99.90;;;;;;5061109;28;20051;-66
2022/07/03 05:32:55;;;;;;;2.58;1.77;;;27.50;99.90;;;;;;5064545;28;20090;-67
2022/07/03 05:35:21;;;;;;;5.55;2.05;;;27.10;99.90;;;;;;5068577;28;20052;-66
2022/07/03 05:37:47;;;;;;;4.03;1.80;;;26.70;99.90;;;;;;5084526;28;20047;-66
2022/07/03 05:40:13;;;;;;;3.15;1.55;;;26.40;99.90;;;;;;5081120;28;20036;-67
2022/07/03 05:42:38;;;;;;;3.35;1.25;;;26.30;99.90;;;;;;5066589;28;20093;-67
2022/07/03 05:45:04;;;;;;;3.75;1.20;;;26.20;99.90;;;;;;5064585;28;20044;-66
2022/07/03 05:47:30;;;;;;;2.33;1.50;;;26.10;99.90;;;;;;5085452;28;20039;-67
2022/07/03 05:49:55;;;;;;;3.80;1.30;;;26.10;99.90;;;;;;5082744;28;20036;-66
2022/07/03 05:52:22;;;;;;;2.55;0.90;;;26.10;99.90;;;;;;5066632;28;20048;-66
2022/07/03 05:54:48;;;;;;;2.67;1.23;;;25.90;99.90;;;;;;5048570;28;20055;-67
2022/07/03 05:57:13;;;;;;;5.25;1.80;;;25.70;99.90;;;;;;5082375;28;20412;-67
2022/07/03 05:59:39;;;;;;;3.20;1.40;;;25.60;99.90;;;;;;5081695;28;20414;-67
2022/07/03 06:02:05;;;;;;;3.45;1.38;;;25.70;99.90;;;;;;5077606;28;20177;-66
2022/07/03 06:04:30;;;;;;;2.88;1.10;;;25.70;99.90;;;;;;5063100;28;20957;-66
2022/07/03 06:06:56;;;;;;;2.90;0.80;;;25.80;99.90;;;;;;5079487;28;20128;-66
2022/07/03 06:09:22;;;;;;;1.42;0.80;;;25.90;99.90;;;;;;5052289;28;20063;-66
2022/07/03 06:11:48;;;;;;;1.77;0.68;;;26.10;99.90;;;;;;5048684;28;20044;-66
2022/07/03 06:14:14;;;;;;;3.95;0.85;;;26.10;99.90;;;;;;5081601;28;20390;-66
2022/07/03 06:16:40;;;;;;;4.60;0.60;;;26.20;99.90;;;;;;5065340;28;20079;-66
2022/07/03 06:19:05;;;;;;;1.65;0.70;;;26.10;99.90;;;;;;5080124;28;20115;-66
2022/07/03 06:21:32;;;;;;;2.25;0.70;;;26.10;99.90;;;;;;5080244;28;20032;-66
2022/07/03 06:23:57;;;;;;;3.67;1.20;;;25.90;99.90;;;;;;5080224;28;20055;-66
2022/07/03 06:26:23;;;;;;;2.88;0.55;;;26.00;99.90;;;;;;5081617;28;20048;-66
2022/07/03 06:28:49;;;;;;;2.53;0.60;;;26.00;99.90;;;;;;5059772;28;20901;-66
2022/07/03 06:31:14;;;;;;;3.88;0.63;;;25.70;99.90;;;;;;5081521;28;20044;-66
2022/07/03 06:33:40;;;;;;;2.15;0.60;;;25.60;99.90;;;;;;5080427;28;20036;-66
2022/07/03 06:36:06;;;;;;;2.65;0.47;;;25.60;99.90;;;;;;5080980;28;20044;-66
2022/07/03 06:38:31;;;;;;;4.72;0.50;;;25.60;99.90;;;;;;5083500;28;20040;-66
2022/07/03 06:40:57;;;;;;;1.70;0.80;;;25.60;99.90;;;;;;5078489;28;20046;-66
2022/07/03 06:43:23;;;;;;;2.22;0.50;;;25.30;99.90;;;;;;5085887;28;20067;-66
2022/07/03 06:45:48;;;;;;;7.32;0.60;;;25.30;99.90;;;;;;5067710;28;20044;-66
2022/07/03 06:48:14;;;;;;;2.58;0.77;;;25.30;99.90;;;;;;5082001;28;20063;-66
2022/07/03 06:50:40;;;;;;;1.30;0.65;;;25.30;99.90;;;;;;5084409;28;20115;-66
2022/07/03 06:53:06;;;;;;;1.38;0.50;;;25.50;99.90;;;;;;5080467;28;20059;-66
2022/07/03 06:55:32;;;;;;;2.50;0.40;;;25.60;99.90;;;;;;5088737;28;20422;-66
2022/07/03 06:57:57;;;;;;;1.35;0.50;;;25.70;99.90;;;;;;5085299;28;20043;-66
2022/07/03 07:00:23;;;;;;;1.08;0.50;;;25.90;99.90;;;;;;5077106;28;20047;-66
2022/07/03 07:02:49;;;;;;;1.30;0.43;;;26.10;99.90;;;;;;5080196;28;20100;-66
2022/07/03 07:05:14;;;;;;;2.10;0.40;;;26.30;99.90;;;;;;5038824;28;20047;-66
2022/07/03 07:07:40;;;;;;;1.27;0.40;;;26.50;99.90;;;;;;5056772;28;20043;-66
2022/07/03 07:10:06;;;;;;;2.17;0.68;;;26.40;99.90;;;;;;5080151;28;20397;-65
2022/07/03 07:12:32;;;;;;;1.73;0.50;;;26.40;99.90;;;;;;5062549;28;20547;-66
2022/07/03 07:14:57;;;;;;;1.80;0.40;;;26.30;99.90;;;;;;5079615;28;20089;-66
2022/07/03 07:17:23;;;;;;;1.67;0.55;;;26.20;99.90;;;;;;5080652;28;20045;-66
2022/07/03 07:19:48;;;;;;;1.98;0.60;;;25.90;99.90;;;;;;5080423;28;20573;-66
2022/07/03 07:22:14;;;;;;;2.72;0.40;;;25.60;99.90;;;;;;5078637;28;20508;-66
2022/07/03 07:24:40;;;;;;;1.45;0.63;;;25.50;99.90;;;;;;5061965;28;20071;-66
2022/07/03 07:27:05;;;;;;;1.60;0.40;;;25.30;99.90;;;;;;5062414;28;20035;-66
2022/07/03 07:29:31;;;;;;;1.63;0.50;;;25.20;99.90;;;;;;5077911;28;20036;-66
2022/07/03 07:31:56;;;;;;;2.25;0.63;;;25.10;99.90;;;;;;5081468;28;20038;-66
2022/07/03 07:34:22;;;;;;;1.85;0.45;;;25.00;99.90;;;;;;5060999;28;20043;-66
2022/07/03 07:36:48;;;;;;;6.15;0.75;;;25.00;99.90;;;;;;5077368;28;21968;-66
2022/07/03 07:39:13;;;;;;;2.35;0.65;;;25.00;99.90;;;;;;5074847;28;20302;-66
2022/07/03 07:41:39;;;;;;;1.95;0.77;;;25.30;99.90;;;;;;5062295;28;20465;-66
2022/07/03 07:44:05;;;;;;;2.53;0.65;;;25.60;99.90;;;;;;5080789;28;20032;-66
2022/07/03 07:46:31;;;;;;;1.92;0.60;;;25.70;99.90;;;;;;5078353;28;20044;-66
2022/07/03 07:48:56;;;;;;;6.05;0.63;;;25.70;99.90;;;;;;5064397;28;20188;-66
2022/07/03 07:51:22;;;;;;;3.90;0.90;;;25.50;99.90;;;;;;5075306;28;20036;-66
2022/07/03 07:53:49;;;;;;;4.07;0.77;;;25.60;99.90;;;;;;5077960;28;20653;-66
2022/07/03 07:56:14;;;;;;;3.47;0.93;;;25.70;99.90;;;;;;5081245;28;20050;-66
2022/07/03 07:58:40;;;;;;;5.38;1.13;;;25.80;99.90;;;;;;5061239;28;20044;-66
2022/07/03 08:06:34;;;;;;;1.98;0.95;;;26.20;99.90;;;;;;5060419;28;20048;-66
2022/07/03 08:09:00;;;;;;;1.80;0.50;;;26.30;99.90;;;;;;5076628;28;20059;-66
2022/07/03 08:11:25;;;;;;;5.22;0.68;;;26.50;99.90;;;;;;5076165;28;20029;-66
2022/07/03 08:13:51;;;;;;;4.75;0.77;;;26.50;99.90;;;;;;5061475;28;20561;-66
2022/07/03 08:16:17;;;;;;;5.68;0.70;;;26.70;99.90;;;;;;5078810;28;20048;-66
2022/07/03 08:18:43;;;;;;;2.85;0.50;;;26.60;99.50;;;;;;5043863;28;20047;-66
2022/07/03 08:21:08;;;;;;;4.47;0.80;;;26.60;99.90;;;;;;5083310;28;20386;-66
2022/07/03 08:23:34;;;;;;;1.52;0.40;;;26.40;99.90;;;;;;5078708;28;20051;-66
2022/07/03 08:26:00;;;;;;;1.42;0.43;;;26.10;99.90;;;;;;5076545;28;20078;-66
2022/07/03 08:28:27;;;;;;;3.38;0.60;;;25.70;99.90;;;;;;5059143;28;20071;-66
2022/07/03 08:30:52;;;;;;;2.15;0.40;;;25.30;99.90;;;;;;5060563;28;20093;-66
2022/07/03 08:33:20;;;;;;;4.22;0.60;;;25.10;99.90;;;;;;5078769;28;20036;-66
2022/07/03 08:35:46;;;;;;;2.33;0.75;;;24.90;99.90;;;;;;5061092;28;20082;-66
2022/07/03 08:38:12;;;;;;;2.38;0.80;;;24.90;99.90;;;;;;5061564;28;20182;-66
2022/07/03 08:40:38;;;;;;;2.13;0.60;;;25.10;99.90;;;;;;5079407;28;20032;-66
2022/07/03 08:43:05;;;;;;;3.38;0.50;;;25.60;99.90;;;;;;5081177;28;20119;-66
2022/07/03 08:45:33;;;;;;;2.25;0.95;;;25.80;99.90;;;;;;5080106;28;20051;-66
2022/07/03 08:47:59;;;;;;;2.88;0.70;;;25.60;99.90;;;;;;5080691;28;20602;-66
2022/07/03 08:50:25;;;;;;;6.00;0.77;;;25.70;99.90;;;;;;5082104;28;20036;-66
2022/07/03 08:52:51;;;;;;;2.83;0.93;;;25.80;99.90;;;;;;5064278;28;20105;-66
2022/07/03 08:55:18;;;;;;;3.38;0.90;;;26.00;99.90;;;;;;5078557;28;20047;-66
2022/07/03 08:57:46;;;;;;;3.90;0.60;;;26.30;99.90;;;;;;5064926;28;20485;-66
2022/07/03 09:00:15;;;;;;;1.15;0.50;;;26.30;99.90;;;;;;5078852;28;20561;-66
2022/07/03 09:02:44;;;;;;;2.33;0.60;;;26.40;99.90;;;;;;5079659;28;20173;-66
2022/07/03 09:05:14;;;;;;;3.13;0.40;;;26.50;99.90;;;;;;5060510;28;20481;-67
2022/07/03 09:07:42;;;;;;;0.75;0.50;;;26.70;99.90;;;;;;5066885;28;20096;-66
2022/07/03 09:10:18;;;;;;;1.20;0.30;;;26.80;99.10;;;;;;5080262;28;20037;-66
2022/07/03 09:12:45;;;;;;;2.50;0.30;;;26.90;97.50;;;;;;5083645;28;20489;-66
2022/07/03 09:15:12;;;;;;;0.55;0.20;;;27.00;98.20;;;;;;5084802;28;20040;-66
2022/07/03 09:17:38;;;;;;;1.40;0.50;;;26.90;97.50;;;;;;5063434;28;20047;-66
2022/07/03 09:20:05;;;;;;;2.05;0.40;;;27.20;98.00;;;;;;5063355;28;20047;-66
2022/07/03 09:22:36;;;;;;;0.57;0.28;;;27.40;97.20;;;;;;5079698;28;20770;-68
2022/07/03 09:25:14;;;;;;;1.95;0.40;;;27.50;96.30;;;;;;5065328;28;20139;-65
2022/07/03 09:27:52;;;;;;;0.70;0.30;;;27.40;94.50;;;;;;5081663;28;20090;-66
2022/07/03 09:30:19;;;;;;;1.80;0.30;;;27.20;94.90;;;;;;5062665;28;20048;-66
2022/07/03 09:32:46;;;;;;;2.28;0.35;;;27.10;94.80;;;;;;5063391;28;20474;-66
2022/07/03 09:35:13;;;;;;;3.17;0.25;;;27.20;95.10;;;;;;5062411;28;20044;-66
2022/07/03 09:37:40;;;;;;;2.10;0.40;;;27.00;95.60;;;;;;5079944;28;20047;-66
2022/07/03 09:40:07;;;;;;;1.52;0.57;;;27.10;96.30;;;;;;5059924;28;20134;-66
2022/07/03 09:42:32;;;;;;;2.05;0.40;;;27.20;96.10;;;;;;5065473;28;20044;-66
2022/07/03 09:44:58;;;;;;;3.03;0.30;;;27.00;95.70;;;;;;5064287;28;20058;-66
2022/07/03 09:47:25;;;;;;;1.45;0.30;;;26.90;95.40;;;;;;5066848;28;20421;-67
2022/07/03 09:50:02;;;;;;;2.63;0.45;;;26.90;95.40;;;;;;5062989;28;20048;-67
2022/07/03 09:52:40;;;;;;;3.65;0.40;;;27.00;95.90;;;;;;5083775;28;20048;-67
2022/07/03 09:55:08;;;;;;;2.45;0.60;;;27.10;95.90;;;;;;5081429;28;20047;-67
2022/07/03 09:57:35;;;;;;;1.23;0.30;;;27.30;95.80;;;;;;5078182;28;20055;-67
2022/07/03 10:00:31;;;;;;;0.98;0.30;;;27.30;95.80;;;;;;5063102;28;20440;-67
2022/07/03 10:03:09;;;;;;;3.17;0.30;;;27.30;97.40;;;;;;5045611;28;20075;-67
2022/07/03 10:05:40;;;;;;;1.40;0.55;;;27.50;96.70;;;;;;5079006;28;20210;-67
2022/07/03 10:08:15;;;;;;;2.40;0.47;;;27.50;95.90;;;;;;5067559;28;20048;-67
2022/07/03 10:10:43;;;;;;;4.53;0.50;;;27.60;96.20;;;;;;5064581;28;20032;-68
2022/07/03 10:13:10;;;;;;;2.45;0.50;;;27.70;95.90;;;;;;5082311;28;20034;-67
2022/07/03 10:15:40;;;;;;;3.15;0.50;;;27.80;95.90;;;;;;5078979;28;20052;-67
2022/07/03 10:18:08;;;;;;;2.47;0.30;;;27.90;96.80;;;;;;5068859;28;20039;-68
2022/07/03 10:20:42;;;;;;;2.55;0.50;;;27.50;95.70;;;;;;5084070;28;20044;-68
2022/07/03 10:23:08;;;;;;;3.28;0.50;;;27.20;96.00;;;;;;5054438;28;20081;-68
2022/07/03 10:25:34;;;;;;;3.17;0.50;;;27.10;96.30;;;;;;5085805;28;20036;-69
2022/07/03 10:28:01;;;;;;;1.92;0.80;;;26.90;96.50;;;;;;5085194;28;20047;-68
2022/07/03 10:30:26;;;;;;;1.95;0.50;;;26.80;96.60;;;;;;5087961;28;20069;-67
2022/07/03 10:32:55;;;;;;;4.40;0.98;;;26.60;97.20;;;;;;5092755;28;20123;-65
2022/07/03 10:35:42;;;;;;;3.75;0.63;;;26.30;96.90;;;;;;5073048;28;20055;-65
2022/07/03 10:38:11;;;;;;;3.38;0.52;;;26.20;98.20;;;;;;5086508;28;20820;-66
2022/07/03 10:46:31;;;;;;;4.00;0.40;;;26.90;97.50;;;;;;5084609;28;20493;-66
2022/07/03 10:49:04;;;;;;;2.22;0.30;;;27.10;97.40;;;;;;5070404;28;20493;-65
2022/07/03 10:51:45;;;;;;;3.13;0.60;;;27.20;96.90;;;;;;5067885;28;20055;-65
2022/07/03 10:54:24;;;;;;;1.35;0.32;;;27.30;96.00;;;;;;5073878;28;20397;-65
2022/07/03 10:57:17;;;;;;;0.93;0.30;;;27.30;96.40;;;;;;5085606;28;20063;-65
2022/07/03 10:59:44;;;;;;;3.10;0.38;;;27.30;95.30;;;;;;5084976;28;20048;-65
2022/07/03 11:02:22;;;;;;;1.48;0.50;;;27.20;96.70;;;;;;5080908;28;21451;-65
2022/07/03 11:04:57;;;;;;;2.72;0.47;;;27.40;93.80;;;;;;5068333;28;20085;-65
2022/07/03 11:07:42;;;;;;;3.25;0.60;;;27.40;95.00;;;;;;5088585;28;20401;-66
2022/07/03 11:10:13;;;;;;;1.95;0.50;;;27.40;95.10;;;;;;5086595;28;20036;-66
2022/07/03 11:13:15;;;;;;;2.13;0.50;;;27.40;95.60;;;;;;5081363;28;20050;-66
2022/07/03 11:15:48;;;;;;;1.80;0.65;;;27.60;96.70;;;;;;5086442;28;20544;-66
2022/07/03 11:18:31;;;;;;;1.45;0.40;;;27.70;96.60;;;;;;5085689;28;20035;-66
2022/07/03 11:21:21;;;;;;;1.95;0.82;;;27.80;95.50;;;;;;5067795;28;20109;-66
2022/07/03 11:24:03;;;;;;;4.63;1.08;;;27.90;95.20;;;;;;5067541;28;20059;-64
2022/07/03 11:26:28;;;;;;;3.78;0.50;;;27.80;95.80;;;;;;5080864;28;20047;-64
2022/07/03 11:28:54;;;;;;;1.73;0.70;;;27.70;95.30;;;;;;5086118;28;20034;-65
2022/07/03 11:31:22;;;;;;;3.22;0.75;;;27.60;94.60;;;;;;5067847;28;20112;-65
2022/07/03 11:33:48;;;;;;;1.55;0.63;;;27.50;95.20;;;;;;5068058;28;20119;-64
2022/07/03 11:36:16;;;;;;;2.28;0.77;;;27.40;95.40;;;;;;5078473;28;20079;-64
2022/07/03 11:38:48;;;;;;;3.15;0.60;;;27.40;96.10;;;;;;5082881;28;20039;-64
2022/07/03 11:41:15;;;;;;;4.28;0.60;;;27.10;96.60;;;;;;5065008;28;20124;-64
2022/07/03 11:43:51;;;;;;;2.38;0.57;;;26.90;95.80;;;;;;5079863;28;20454;-65
2022/07/03 11:46:28;;;;;;;2.33;0.40;;;26.90;97.00;;;;;;5080681;28;20055;-65
2022/07/03 11:49:06;;;;;;;1.90;0.32;;;27.00;97.50;;;;;;5072378;28;20063;-64
2022/07/03 11:51:32;;;;;;;2.83;0.65;;;27.10;95.50;;;;;;5069877;28;20048;-65
2022/07/03 11:53:57;;;;;;;1.92;0.50;;;27.10;96.60;;;;;;5069180;28;20024;-64
2022/07/03 11:56:23;;;;;;;2.15;0.50;;;27.10;96.40;;;;;;5069277;28;20044;-65
2022/07/03 11:58:53;;;;;;;1.52;0.47;;;27.00;96.80;;;;;;5074497;28;20036;-65
2022/07/03 12:01:28;;;;;;;2.47;0.50;;;26.70;97.90;;;;;;5062560;28;20075;-64
2022/07/03 12:04:14;;;;;;;3.00;0.52;;;26.70;98.20;;;;;;5066939;28;20065;-64
2022/07/03 12:06:41;;;;;;;3.70;0.40;;;26.80;98.30;;;;;;5083432;28;20585;-65
2022/07/03 12:09:17;;;;;;;1.55;0.40;;;26.70;97.50;;;;;;5067339;28;20043;-65
2022/07/03 12:12:04;;;;;;;4.22;0.63;;;26.70;97.90;;;;;;5074931;28;20036;-65
2022/07/03 12:14:47;;;;;;;1.83;0.52;;;26.70;97.70;;;;;;5045796;28;20076;-64
2022/07/03 12:17:15;;;;;;;3.45;0.57;;;26.60;98.90;;;;;;5083172;28;20039;-65
2022/07/03 12:19:46;;;;;;;2.17;0.55;;;26.40;98.40;;;;;;5078696;28;20040;-65
2022/07/03 12:22:21;;;;;;;2.63;0.52;;;26.10;96.90;;;;;;5054944;28;20044;-64
2022/07/03 12:25:04;;;;;;;2.55;0.73;;;25.90;97.80;;;;;;5067714;28;20063;-64
2022/07/03 12:27:34;;;;;;;3.28;0.60;;;25.80;98.60;;;;;;5083857;28;20031;-64
2022/07/03 12:30:01;;;;;;;2.25;0.40;;;25.70;98.30;;;;;;5079671;28;20051;-64
2022/07/03 12:32:26;;;;;;;3.75;0.75;;;25.70;98.20;;;;;;5064784;28;20031;-64
2022/07/03 12:34:52;;;;;;;5.25;1.20;;;25.90;98.40;;;;;;5083406;28;20055;-64
2022/07/03 12:37:31;;;;;;;3.08;0.52;;;26.00;99.30;;;;;;5046638;28;20497;-64
2022/07/03 12:39:57;;;;;;;3.42;0.60;;;26.00;99.90;;;;;;5079234;28;20068;-64
2022/07/03 12:42:23;;;;;;;2.95;0.45;;;25.90;99.50;;;;;;5068025;28;20071;-64
2022/07/03 12:44:59;;;;;;;3.20;0.80;;;25.90;99.30;;;;;;5068697;28;20119;-65
2022/07/03 12:47:26;;;;;;;4.43;0.95;;;25.80;99.00;;;;;;5085376;28;20040;-66
2022/07/03 12:49:56;;;;;;;4.13;0.60;;;25.80;98.60;;;;;;5087928;28;20773;-66
2022/07/03 12:52:22;;;;;;;4.45;0.55;;;25.80;99.00;;;;;;5087722;28;20044;-66
2022/07/03 12:54:47;;;;;;;3.28;0.75;;;26.20;99.20;;;;;;5068837;28;20034;-66
2022/07/03 13:00:17;;;;;;;6.28;0.68;;;26.50;98.30;;;;;;5086678;28;20055;-66
2022/07/03 13:02:48;;;;;;;4.55;0.52;;;26.40;96.60;;;;;;5069787;28;20405;-66
2022/07/03 13:05:22;;;;;;;3.63;0.60;;;26.50;97.30;;;;;;5066223;28;20047;-66
2022/07/03 13:07:57;;;;;;;2.80;0.47;;;26.40;97.70;;;;;;5086248;28;20035;-66
2022/07/03 13:10:23;;;;;;;2.67;0.80;;;26.30;98.30;;;;;;5071017;28;20036;-67
2022/07/03 13:12:54;;;;;;;1.38;0.32;;;25.80;98.20;;;;;;5066596;28;20036;-67
2022/07/03 13:15:24;;;;;;;2.55;0.40;;;25.80;98.40;;;;;;5068270;28;20129;-67